Climatologie pour Saint-Brevin les Pins
Jour • Résumé pour mars 14, 2017 Système :  Métrique    Anglais   Mixte
« - 1 jour
+ 1 jour »
Jour Semaine Mois Année Personnalisé
  Maximum : Minimum : Moyenne :
Température sous abri : 15.2 °C 0.8 °C 8.4 °C
Point de rosée : 10.9 °C 0.2 °C 6.4 °C
Humidité : 98 % 71 % 88 %
Vitesse du vent : 17.7 km/h 0.0 km/h 3.5 km/h
Rafale : 22.5 km/h - -
Direction :- - East
Pression : 1036.8 hPa 1034.4 hPa -
Précipitations : 0.0 mm    
Historical Graphs
 
 
Tableau de données pour mars 14, 2017
Heure Tempé Pt rosée Pression Vent Vitesse Rafale Humidité Taux pluie (/hr) Soleil
00:05 6.2 °C 4.5 °C 1034.8 hPa North 6.4 km/h 8.0 km/h 89 % 0.0 mm 0 W/m2
00:15 5.7 °C 4.2 °C 1035.1 hPa North 3.2 km/h 6.4 km/h 90 % 0.0 mm 0 W/m2
00:20 5.7 °C 4.3 °C 1035.1 hPa North 1.6 km/h 6.4 km/h 91 % 0.0 mm 0 W/m2
00:25 5.6 °C 4.3 °C 1035.1 hPa NNE 1.6 km/h 6.4 km/h 91 % 0.0 mm 0 W/m2
00:30 5.5 °C 4.1 °C 1035.1 hPa Calm   6.4 km/h 91 % 0.0 mm 0 W/m2
00:35 5.3 °C 4.0 °C 1035.1 hPa NNE 1.6 km/h 4.8 km/h 91 % 0.0 mm 0 W/m2
00:40 5.3 °C 4.0 °C 1035.1 hPa NNE 3.2 km/h 4.8 km/h 91 % 0.0 mm 0 W/m2
00:45 5.2 °C 3.8 °C 1035.1 hPa NNE 3.2 km/h 8.0 km/h 91 % 0.0 mm 0 W/m2
00:50 4.9 °C 3.7 °C 1035.1 hPa North 3.2 km/h 8.0 km/h 92 % 0.0 mm 0 W/m2
00:55 4.8 °C 3.7 °C 1035.1 hPa North 4.8 km/h 8.0 km/h 93 % 0.0 mm 0 W/m2
01:00 4.8 °C 3.8 °C 1035.1 hPa North 4.8 km/h 6.4 km/h 93 % 0.0 mm 0 W/m2
01:05 4.8 °C 3.8 °C 1035.1 hPa Calm   6.4 km/h 93 % 0.0 mm 0 W/m2
01:10 4.8 °C 3.7 °C 1035.1 hPa Calm   4.8 km/h 93 % 0.0 mm 0 W/m2
01:15 4.7 °C 3.7 °C 1035.1 hPa Calm   3.2 km/h 93 % 0.0 mm 0 W/m2
01:20 4.8 °C 3.7 °C 1035.1 hPa Calm   3.2 km/h 93 % 0.0 mm 0 W/m2
01:25 4.7 °C 3.7 °C 1035.1 hPa Calm   3.2 km/h 93 % 0.0 mm 0 W/m2
01:30 4.7 °C 3.6 °C 1035.1 hPa Calm   1.6 km/h 93 % 0.0 mm 0 W/m2
01:35 4.6 °C 3.5 °C 1035.1 hPa Calm     93 % 0.0 mm 0 W/m2
01:40 4.4 °C 3.4 °C 1035.1 hPa Calm     93 % 0.0 mm 0 W/m2
01:45 4.3 °C 3.2 °C 1035.1 hPa Calm   1.6 km/h 93 % 0.0 mm 0 W/m2
01:50 4.2 °C 3.3 °C 1035.1 hPa Calm   1.6 km/h 94 % 0.0 mm 0 W/m2
01:55 4.1 °C 3.2 °C 1035.1 hPa Calm   1.6 km/h 94 % 0.0 mm 0 W/m2
02:00 4.1 °C 3.2 °C 1035.1 hPa Calm   1.6 km/h 94 % 0.0 mm 0 W/m2
02:05 3.9 °C 3.1 °C 1035.1 hPa North 3.2 km/h 3.2 km/h 94 % 0.0 mm 0 W/m2
02:10 3.7 °C 2.8 °C 1035.1 hPa Calm   4.8 km/h 94 % 0.0 mm 0 W/m2
02:15 3.5 °C 2.6 °C 1035.1 hPa Calm   4.8 km/h 94 % 0.0 mm 0 W/m2
02:20 3.5 °C 2.8 °C 1035.1 hPa North 1.6 km/h 3.2 km/h 95 % 0.0 mm 0 W/m2
02:25 3.5 °C 2.8 °C 1035.1 hPa Calm   6.4 km/h 95 % 0.0 mm 0 W/m2
02:30 3.6 °C 2.8 °C 1035.1 hPa Calm   6.4 km/h 95 % 0.0 mm 0 W/m2
02:40 3.8 °C 3.1 °C 1035.1 hPa Calm   4.8 km/h 95 % 0.0 mm 0 W/m2
02:45 3.9 °C 3.2 °C 1035.1 hPa NE 1.6 km/h 6.4 km/h 95 % 0.0 mm 0 W/m2
02:50 3.8 °C 3.1 °C 1034.8 hPa NE 3.2 km/h 6.4 km/h 95 % 0.0 mm 0 W/m2
02:55 3.9 °C 3.2 °C 1034.8 hPa Calm   4.8 km/h 95 % 0.0 mm 0 W/m2
03:00 4.1 °C 3.4 °C 1034.8 hPa Calm   3.2 km/h 95 % 0.0 mm 0 W/m2
03:05 4.2 °C 3.4 °C 1034.8 hPa Calm   3.2 km/h 95 % 0.0 mm 0 W/m2
03:10 3.9 °C 3.2 °C 1034.8 hPa Calm     95 % 0.0 mm 0 W/m2
03:15 3.9 °C 3.2 °C 1034.8 hPa Calm   1.6 km/h 95 % 0.0 mm 0 W/m2
03:20 3.7 °C 2.9 °C 1034.8 hPa Calm   1.6 km/h 95 % 0.0 mm 0 W/m2
03:25 3.5 °C 2.8 °C 1034.8 hPa Calm     95 % 0.0 mm 0 W/m2
03:30 3.3 °C 2.6 °C 1034.8 hPa Calm   1.6 km/h 95 % 0.0 mm 0 W/m2
03:40 3.6 °C 2.8 °C 1034.4 hPa Calm   3.2 km/h 95 % 0.0 mm 0 W/m2
03:45 3.7 °C 2.9 °C 1034.4 hPa Calm   3.2 km/h 95 % 0.0 mm 0 W/m2
03:50 3.7 °C 2.9 °C 1034.4 hPa Calm   1.6 km/h 95 % 0.0 mm 0 W/m2
03:55 3.3 °C 2.4 °C 1034.4 hPa Calm   1.6 km/h 94 % 0.0 mm 0 W/m2
04:00 2.9 °C 2.1 °C 1034.4 hPa Calm     94 % 0.0 mm 0 W/m2
04:05 2.7 °C 1.9 °C 1034.4 hPa Calm     95 % 0.0 mm 0 W/m2
04:10 2.8 °C 2.1 °C 1034.4 hPa Calm     95 % 0.0 mm 0 W/m2
04:20 2.9 °C 2.4 °C 1034.4 hPa Calm   3.2 km/h 96 % 0.0 mm 0 W/m2
04:25 2.9 °C 2.2 °C 1034.4 hPa Calm   1.6 km/h 95 % 0.0 mm 0 W/m2
04:30 2.5 °C 1.8 °C 1034.4 hPa Calm     95 % 0.0 mm 0 W/m2
04:40 2.1 °C 1.4 °C 1034.4 hPa Calm     95 % 0.0 mm 0 W/m2
04:45 2.1 °C 1.3 °C 1034.4 hPa Calm     95 % 0.0 mm 0 W/m2
04:50 2.0 °C 1.4 °C 1034.4 hPa Calm     96 % 0.0 mm 0 W/m2
04:55 2.1 °C 1.5 °C 1034.4 hPa Calm     96 % 0.0 mm 0 W/m2
05:00 1.9 °C 1.3 °C 1034.4 hPa Calm   1.6 km/h 96 % 0.0 mm 0 W/m2
05:10 1.7 °C 1.2 °C 1034.4 hPa Calm   1.6 km/h 96 % 0.0 mm 0 W/m2
05:15 1.7 °C 1.2 °C 1034.4 hPa Calm   1.6 km/h 96 % 0.0 mm 0 W/m2
05:20 1.7 °C 1.2 °C 1034.4 hPa Calm   1.6 km/h 96 % 0.0 mm 0 W/m2
05:25 1.6 °C 1.0 °C 1034.4 hPa Calm   1.6 km/h 96 % 0.0 mm 0 W/m2
05:30 1.5 °C 0.9 °C 1034.4 hPa Calm     96 % 0.0 mm 0 W/m2
05:35 1.4 °C 0.9 °C 1034.4 hPa Calm     96 % 0.0 mm 0 W/m2
05:40 1.4 °C 0.8 °C 1034.4 hPa NE 1.6 km/h 1.6 km/h 96 % 0.0 mm 0 W/m2
05:45 1.4 °C 0.8 °C 1034.4 hPa Calm   1.6 km/h 96 % 0.0 mm 0 W/m2
05:55 1.7 °C 1.2 °C 1034.4 hPa Calm   1.6 km/h 97 % 0.0 mm 0 W/m2
06:00 1.6 °C 1.0 °C 1034.4 hPa Calm     96 % 0.0 mm 0 W/m2
06:10 1.7 °C 1.2 °C 1034.4 hPa Calm     96 % 0.0 mm 0 W/m2
06:15 1.7 °C 1.1 °C 1034.4 hPa Calm     96 % 0.0 mm 0 W/m2
06:20 1.7 °C 1.1 °C 1034.4 hPa Calm     96 % 0.0 mm 0 W/m2
06:25 1.6 °C 1.0 °C 1034.4 hPa Calm     96 % 0.0 mm 0 W/m2
06:30 1.4 °C 0.8 °C 1034.4 hPa Calm   1.6 km/h 96 % 0.0 mm 0 W/m2
06:40 1.1 °C 0.5 °C 1034.4 hPa Calm     96 % 0.0 mm 0 W/m2
06:45 1.1 °C 0.5 °C 1034.4 hPa Calm   3.2 km/h 96 % 0.0 mm 0 W/m2
06:50 1.1 °C 0.5 °C 1034.8 hPa Calm   3.2 km/h 96 % 0.0 mm 0 W/m2
06:55 1.2 °C 0.7 °C 1034.8 hPa Calm     97 % 0.0 mm 0 W/m2
07:00 1.1 °C 0.5 °C 1034.8 hPa Calm     96 % 0.0 mm 0 W/m2
07:05 0.9 °C 0.4 °C 1034.8 hPa Calm   1.6 km/h 96 % 0.0 mm 0 W/m2
07:10 0.9 °C 0.5 °C 1035.1 hPa Calm   1.6 km/h 97 % 0.0 mm 0 W/m2
07:15 0.8 °C 0.2 °C 1035.1 hPa NE 1.6 km/h 3.2 km/h 96 % 0.0 mm 0 W/m2
07:20 0.8 °C 0.4 °C 1035.1 hPa Calm   3.2 km/h 97 % 0.0 mm 0 W/m2
07:25 0.9 °C 0.5 °C 1035.1 hPa Calm   4.8 km/h 97 % 0.0 mm 0 W/m2
07:30 1.2 °C 0.7 °C 1035.4 hPa NNE 3.2 km/h 6.4 km/h 97 % 0.0 mm 7 W/m2
07:35 1.6 °C 1.2 °C 1035.4 hPa NNE 1.6 km/h 8.0 km/h 97 % 0.0 mm 9 W/m2
07:40 2.2 °C 1.9 °C 1035.4 hPa North 3.2 km/h 8.0 km/h 98 % 0.0 mm 12 W/m2
07:45 2.4 °C 2.0 °C 1035.4 hPa North 3.2 km/h 6.4 km/h 97 % 0.0 mm 12 W/m2
07:50 2.4 °C 2.0 °C 1035.4 hPa North 3.2 km/h 6.4 km/h 97 % 0.0 mm 16 W/m2
07:55 2.6 °C 2.2 °C 1035.4 hPa NNE 1.6 km/h 6.4 km/h 97 % 0.0 mm 19 W/m2
08:00 2.7 °C 2.3 °C 1035.8 hPa Calm   6.4 km/h 97 % 0.0 mm 25 W/m2
08:10 3.1 °C 2.7 °C 1035.8 hPa Calm   3.2 km/h 97 % 0.0 mm 28 W/m2
08:15 3.3 °C 2.8 °C 1035.8 hPa Calm   3.2 km/h 97 % 0.0 mm 30 W/m2
08:20 3.6 °C 3.3 °C 1035.4 hPa Calm   3.2 km/h 98 % 0.0 mm 32 W/m2
08:25 4.1 °C 3.8 °C 1035.8 hPa Calm   4.8 km/h 98 % 0.0 mm 35 W/m2
08:30 4.4 °C 4.1 °C 1035.8 hPa Calm   8.0 km/h 98 % 0.0 mm 105 W/m2
08:35 4.7 °C 4.4 °C 1035.8 hPa NE 1.6 km/h 8.0 km/h 98 % 0.0 mm 37 W/m2
08:40 4.8 °C 4.5 °C 1035.8 hPa Calm   4.8 km/h 98 % 0.0 mm 39 W/m2
08:45 5.2 °C 4.9 °C 1035.8 hPa ENE 6.4 km/h 6.4 km/h 98 % 0.0 mm 40 W/m2
08:50 5.3 °C 5.0 °C 1035.8 hPa Calm   6.4 km/h 98 % 0.0 mm 40 W/m2
08:55 5.6 °C 5.3 °C 1035.8 hPa Calm   8.0 km/h 98 % 0.0 mm 40 W/m2
09:00 5.8 °C 5.5 °C 1035.8 hPa Calm   9.7 km/h 98 % 0.0 mm 40 W/m2
09:10 6.3 °C 6.0 °C 1035.8 hPa NNE 4.8 km/h 11.3 km/h 98 % 0.0 mm 42 W/m2
09:15 6.5 °C 6.2 °C 1035.8 hPa NE 3.2 km/h 11.3 km/h 98 % 0.0 mm 42 W/m2
09:20 6.7 °C 6.4 °C 1035.8 hPa NE 4.8 km/h 12.9 km/h 98 % 0.0 mm 44 W/m2
09:25 6.8 °C 6.4 °C 1036.1 hPa ENE 3.2 km/h 12.9 km/h 97 % 0.0 mm 44 W/m2
09:30 7.0 °C 6.6 °C 1036.1 hPa NE 9.7 km/h 14.5 km/h 97 % 0.0 mm 47 W/m2
09:40 7.4 °C 6.9 °C 1036.1 hPa NNE 8.0 km/h 11.3 km/h 97 % 0.0 mm 343 W/m2
09:45 7.6 °C 7.0 °C 1036.1 hPa NE 9.7 km/h 11.3 km/h 96 % 0.0 mm 359 W/m2
09:50 7.9 °C 7.3 °C 1036.1 hPa NE 9.7 km/h 12.9 km/h 96 % 0.0 mm 374 W/m2
09:55 8.2 °C 7.3 °C 1036.5 hPa NE 6.4 km/h 12.9 km/h 94 % 0.0 mm 388 W/m2
10:00 8.4 °C 7.5 °C 1036.5 hPa North 1.6 km/h 14.5 km/h 94 % 0.0 mm 397 W/m2
10:05 8.6 °C 7.5 °C 1036.5 hPa ENE 1.6 km/h 14.5 km/h 93 % 0.0 mm 415 W/m2
10:10 8.9 °C 7.8 °C 1036.5 hPa North 8.0 km/h 12.9 km/h 93 % 0.0 mm 425 W/m2
10:20 9.2 °C 7.7 °C 1036.5 hPa NE 3.2 km/h 12.9 km/h 90 % 0.0 mm 450 W/m2
10:30 10.1 °C 8.5 °C 1036.8 hPa NNE 6.4 km/h 11.3 km/h 90 % 0.0 mm 471 W/m2
10:35 10.1 °C 8.2 °C 1036.8 hPa Calm   11.3 km/h 88 % 0.0 mm 482 W/m2
10:40 10.4 °C 8.3 °C 1036.8 hPa NE 1.6 km/h 11.3 km/h 87 % 0.0 mm 489 W/m2
10:45 10.4 °C 8.2 °C 1036.8 hPa ENE 3.2 km/h 12.9 km/h 86 % 0.0 mm 503 W/m2
10:50 10.7 °C 8.6 °C 1036.8 hPa North 6.4 km/h 12.9 km/h 87 % 0.0 mm 503 W/m2
10:55 10.7 °C 8.3 °C 1036.8 hPa NNE 6.4 km/h 12.9 km/h 85 % 0.0 mm 527 W/m2
11:00 10.9 °C 8.5 °C 1036.8 hPa ENE 8.0 km/h 12.9 km/h 85 % 0.0 mm 538 W/m2
11:10 11.2 °C 9.1 °C 1036.8 hPa NNE 1.6 km/h 12.9 km/h 87 % 0.0 mm 555 W/m2
11:15 11.8 °C 9.3 °C 1036.8 hPa NNE 6.4 km/h 12.9 km/h 85 % 0.0 mm 564 W/m2
11:20 11.7 °C 9.1 °C 1036.5 hPa NE 9.7 km/h 14.5 km/h 84 % 0.0 mm 566 W/m2
11:30 11.7 °C 9.3 °C 1036.5 hPa NE 6.4 km/h 12.9 km/h 85 % 0.0 mm 601 W/m2
11:35 11.8 °C 8.6 °C 1036.5 hPa NE 4.8 km/h 12.9 km/h 81 % 0.0 mm 629 W/m2
11:40 12.1 °C 9.4 °C 1036.5 hPa NNE 4.8 km/h 12.9 km/h 84 % 0.0 mm 592 W/m2
11:45 12.5 °C 9.5 °C 1036.5 hPa North 11.3 km/h 14.5 km/h 82 % 0.0 mm 638 W/m2
11:55 12.8 °C 9.7 °C 1036.5 hPa NE 6.4 km/h 12.9 km/h 81 % 0.0 mm 631 W/m2
12:00 13.2 °C 10.4 °C 1036.5 hPa NNE 9.7 km/h 14.5 km/h 83 % 0.0 mm 640 W/m2
12:05 12.9 °C 9.4 °C 1036.5 hPa NE 8.0 km/h 14.5 km/h 79 % 0.0 mm 689 W/m2
12:10 12.9 °C 9.4 °C 1036.5 hPa Calm   14.5 km/h 79 % 0.0 mm 684 W/m2
12:15 13.4 °C 10.1 °C 1036.5 hPa NE 3.2 km/h 14.5 km/h 80 % 0.0 mm 729 W/m2
12:20 12.8 °C 9.6 °C 1036.5 hPa ESE 4.8 km/h 14.5 km/h 81 % 0.0 mm 729 W/m2
12:25 13.0 °C 9.4 °C 1036.1 hPa ENE 8.0 km/h 16.1 km/h 79 % 0.0 mm 742 W/m2
12:30 13.7 °C 10.5 °C 1036.1 hPa NNE 1.6 km/h 16.1 km/h 81 % 0.0 mm 817 W/m2
12:45 13.7 °C 9.7 °C 1036.1 hPa ENE 6.4 km/h 17.7 km/h 77 % 0.0 mm 434 W/m2
12:50 14.7 °C 10.9 °C 1036.1 hPa East 6.4 km/h 16.1 km/h 78 % 0.0 mm 780 W/m2
12:55 14.3 °C 9.8 °C 1036.1 hPa ENE 8.0 km/h 14.5 km/h 74 % 0.0 mm 213 W/m2
13:00 14.4 °C 10.4 °C 1036.1 hPa East 4.8 km/h 14.5 km/h 77 % 0.0 mm 766 W/m2
13:10 14.2 °C 9.9 °C 1035.8 hPa East 8.0 km/h 17.7 km/h 75 % 0.0 mm 835 W/m2
13:15 14.4 °C 9.5 °C 1035.8 hPa ENE 3.2 km/h 17.7 km/h 72 % 0.0 mm 782 W/m2
13:25 14.7 °C 9.5 °C 1035.8 hPa East 11.3 km/h 20.9 km/h 71 % 0.0 mm 682 W/m2
13:35 15.2 °C 10.4 °C 1035.8 hPa North 3.2 km/h 14.5 km/h 73 % 0.0 mm 309 W/m2
13:40 14.0 °C 9.0 °C 1035.8 hPa Calm   14.5 km/h 72 % 0.0 mm 311 W/m2
13:45 13.6 °C 9.2 °C 1035.8 hPa NNE 12.9 km/h 14.5 km/h 75 % 0.0 mm 236 W/m2
13:50 13.3 °C 9.3 °C 1035.4 hPa NNE 4.8 km/h 14.5 km/h 77 % 0.0 mm 336 W/m2
13:55 14.6 °C 10.4 °C 1035.4 hPa North 6.4 km/h 12.9 km/h 76 % 0.0 mm 819 W/m2
14:00 14.7 °C 9.5 °C 1035.4 hPa NNW 8.0 km/h 14.5 km/h 71 % 0.0 mm 255 W/m2
14:10 14.3 °C 9.6 °C 1035.4 hPa North 4.8 km/h 14.5 km/h 73 % 0.0 mm 279 W/m2
14:15 13.9 °C 9.6 °C 1035.4 hPa NE 6.4 km/h 14.5 km/h 75 % 0.0 mm 861 W/m2
14:20 13.7 °C 9.0 °C 1035.4 hPa Calm   14.5 km/h 73 % 0.0 mm 341 W/m2
14:25 14.0 °C 9.4 °C 1035.4 hPa NE 6.4 km/h 16.1 km/h 74 % 0.0 mm 381 W/m2
14:30 14.2 °C 9.7 °C 1035.4 hPa NE 3.2 km/h 16.1 km/h 74 % 0.0 mm 413 W/m2
14:35 14.4 °C 9.7 °C 1035.4 hPa NNE 3.2 km/h 14.5 km/h 73 % 0.0 mm 397 W/m2
14:40 14.3 °C 9.6 °C 1035.4 hPa Calm   12.9 km/h 73 % 0.0 mm 366 W/m2
14:45 14.2 °C 9.4 °C 1035.4 hPa North 1.6 km/h 14.5 km/h 73 % 0.0 mm 315 W/m2
14:55 14.3 °C 10.5 °C 1035.1 hPa Calm   12.9 km/h 78 % 0.0 mm 309 W/m2
15:00 14.3 °C 10.0 °C 1035.1 hPa North 1.6 km/h 12.9 km/h 75 % 0.0 mm 327 W/m2
15:10 13.7 °C 9.3 °C 1035.4 hPa East 4.8 km/h 16.1 km/h 75 % 0.0 mm 209 W/m2
15:15 13.3 °C 9.1 °C 1035.4 hPa NE 4.8 km/h 16.1 km/h 76 % 0.0 mm 174 W/m2
15:20 13.1 °C 9.2 °C 1035.4 hPa NE 6.4 km/h 14.5 km/h 77 % 0.0 mm 146 W/m2
15:25 12.9 °C 9.2 °C 1035.4 hPa North 3.2 km/h 12.9 km/h 78 % 0.0 mm 146 W/m2
15:30 12.9 °C 9.2 °C 1035.4 hPa North 11.3 km/h 12.9 km/h 78 % 0.0 mm 167 W/m2
15:40 12.9 °C 9.3 °C 1035.1 hPa North 8.0 km/h 14.5 km/h 79 % 0.0 mm 144 W/m2
15:45 12.8 °C 9.3 °C 1035.1 hPa North 1.6 km/h 14.5 km/h 79 % 0.0 mm 151 W/m2
15:50 12.9 °C 9.3 °C 1035.1 hPa NNW 8.0 km/h 12.9 km/h 79 % 0.0 mm 142 W/m2
15:55 12.8 °C 9.3 °C 1035.1 hPa NE 6.4 km/h 9.7 km/h 79 % 0.0 mm 144 W/m2
16:00 12.8 °C 9.3 °C 1035.1 hPa NNE 8.0 km/h 14.5 km/h 79 % 0.0 mm 130 W/m2
16:05 12.6 °C 8.9 °C 1035.1 hPa NNE 8.0 km/h 14.5 km/h 78 % 0.0 mm 132 W/m2
16:10 12.6 °C 8.8 °C 1035.1 hPa East 11.3 km/h 16.1 km/h 78 % 0.0 mm 121 W/m2
16:15 12.6 °C 9.0 °C 1035.1 hPa ENE 3.2 km/h 16.1 km/h 79 % 0.0 mm 120 W/m2
16:25 12.6 °C 9.2 °C 1035.1 hPa East 11.3 km/h 14.5 km/h 80 % 0.0 mm 120 W/m2
16:30 12.6 °C 9.2 °C 1035.1 hPa Calm   14.5 km/h 80 % 0.0 mm 120 W/m2
16:35 12.7 °C 9.3 °C 1035.1 hPa ENE 6.4 km/h 12.9 km/h 80 % 0.0 mm 107 W/m2
16:45 12.7 °C 9.1 °C 1035.1 hPa NE 9.7 km/h 9.7 km/h 79 % 0.0 mm 105 W/m2
16:50 12.4 °C 9.1 °C 1035.1 hPa North 3.2 km/h 16.1 km/h 80 % 0.0 mm 111 W/m2
16:55 12.4 °C 9.0 °C 1035.1 hPa NNE 4.8 km/h 16.1 km/h 80 % 0.0 mm 88 W/m2
17:00 12.3 °C 9.0 °C 1035.1 hPa North 6.4 km/h 11.3 km/h 80 % 0.0 mm 67 W/m2
17:05 12.2 °C 9.1 °C 1034.8 hPa North 4.8 km/h 12.9 km/h 81 % 0.0 mm 56 W/m2
17:10 12.1 °C 9.1 °C 1035.1 hPa NE 8.0 km/h 12.9 km/h 82 % 0.0 mm 56 W/m2
17:15 12.1 °C 9.1 °C 1035.1 hPa NE 3.2 km/h 12.9 km/h 82 % 0.0 mm 58 W/m2
17:20 12.0 °C 9.2 °C 1035.1 hPa NNE 3.2 km/h 14.5 km/h 83 % 0.0 mm 67 W/m2
17:25 12.1 °C 9.3 °C 1035.1 hPa North 3.2 km/h 14.5 km/h 83 % 0.0 mm 69 W/m2
17:30 12.1 °C 9.1 °C 1035.1 hPa NE 6.4 km/h 12.9 km/h 82 % 0.0 mm 58 W/m2
17:40 12.0 °C 9.0 °C 1034.8 hPa NE 6.4 km/h 16.1 km/h 82 % 0.0 mm 60 W/m2
17:45 12.0 °C 9.0 °C 1034.8 hPa NE 6.4 km/h 11.3 km/h 82 % 0.0 mm 51 W/m2
17:50 11.9 °C 9.0 °C 1034.8 hPa NE 4.8 km/h 11.3 km/h 82 % 0.0 mm 44 W/m2
17:55 11.9 °C 9.1 °C 1034.8 hPa NE 1.6 km/h 11.3 km/h 83 % 0.0 mm 37 W/m2
18:05 11.9 °C 9.1 °C 1034.8 hPa North 1.6 km/h 9.7 km/h 83 % 0.0 mm 32 W/m2
18:10 11.8 °C 9.0 °C 1034.8 hPa NNE 3.2 km/h 9.7 km/h 83 % 0.0 mm 33 W/m2
18:15 11.8 °C 9.2 °C 1034.8 hPa NNE 6.4 km/h 9.7 km/h 84 % 0.0 mm 23 W/m2
18:25 11.8 °C 9.2 °C 1034.8 hPa NNE 4.8 km/h 6.4 km/h 84 % 0.0 mm 21 W/m2
18:30 11.8 °C 9.2 °C 1034.8 hPa NE 3.2 km/h 8.0 km/h 84 % 0.0 mm 18 W/m2
18:35 11.7 °C 9.1 °C 1034.8 hPa North 1.6 km/h 9.7 km/h 84 % 0.0 mm 16 W/m2
18:40 11.7 °C 9.1 °C 1034.8 hPa Calm   9.7 km/h 84 % 0.0 mm 14 W/m2
18:45 11.7 °C 9.1 °C 1034.8 hPa NE 1.6 km/h 8.0 km/h 84 % 0.0 mm 11 W/m2
18:50 11.7 °C 9.1 °C 1034.8 hPa Calm   8.0 km/h 84 % 0.0 mm 9 W/m2
18:55 11.6 °C 8.9 °C 1034.8 hPa NE 8.0 km/h 8.0 km/h 84 % 0.0 mm 5 W/m2
19:00 11.6 °C 9.1 °C 1034.8 hPa Calm   8.0 km/h 85 % 0.0 mm 0 W/m2
19:10 11.4 °C 9.0 °C 1034.8 hPa NE 1.6 km/h 6.4 km/h 85 % 0.0 mm 0 W/m2
19:15 11.4 °C 9.0 °C 1034.8 hPa Calm   6.4 km/h 85 % 0.0 mm 0 W/m2
19:20 11.4 °C 9.0 °C 1035.1 hPa NE 1.6 km/h 4.8 km/h 85 % 0.0 mm 0 W/m2
19:25 11.4 °C 9.1 °C 1035.1 hPa Calm   4.8 km/h 86 % 0.0 mm 0 W/m2
19:30 11.4 °C 9.0 °C 1035.1 hPa Calm   3.2 km/h 85 % 0.0 mm 0 W/m2
19:40 11.3 °C 9.1 °C 1035.1 hPa NE 3.2 km/h 3.2 km/h 86 % 0.0 mm 0 W/m2
19:45 11.3 °C 9.1 °C 1035.1 hPa NNE 6.4 km/h 8.0 km/h 86 % 0.0 mm 0 W/m2
19:55 11.4 °C 9.1 °C 1035.1 hPa NNE 4.8 km/h 8.0 km/h 86 % 0.0 mm 0 W/m2
20:00 11.4 °C 9.1 °C 1035.1 hPa Calm   6.4 km/h 86 % 0.0 mm 0 W/m2
20:05 11.4 °C 9.2 °C 1035.1 hPa NNE 4.8 km/h 6.4 km/h 86 % 0.0 mm 0 W/m2
20:10 11.4 °C 9.1 °C 1034.8 hPa NNE 4.8 km/h 6.4 km/h 86 % 0.0 mm 0 W/m2
20:15 11.3 °C 9.2 °C 1034.8 hPa NNE 1.6 km/h 6.4 km/h 87 % 0.0 mm 0 W/m2
20:20 11.3 °C 9.2 °C 1034.8 hPa NNE 6.4 km/h 6.4 km/h 87 % 0.0 mm 0 W/m2
20:25 11.2 °C 9.1 °C 1035.1 hPa NNE 1.6 km/h 6.4 km/h 87 % 0.0 mm 0 W/m2
20:30 11.3 °C 9.2 °C 1035.1 hPa Calm   6.4 km/h 87 % 0.0 mm 0 W/m2
20:40 11.3 °C 9.2 °C 1035.1 hPa Calm   6.4 km/h 87 % 0.0 mm 0 W/m2
20:45 11.2 °C 9.1 °C 1035.1 hPa NNE 3.2 km/h 6.4 km/h 87 % 0.0 mm 0 W/m2
20:50 11.2 °C 9.1 °C 1035.1 hPa Calm   6.4 km/h 87 % 0.0 mm 0 W/m2
20:55 11.3 °C 9.2 °C 1035.1 hPa NE 4.8 km/h 9.7 km/h 87 % 0.0 mm 0 W/m2
21:00 11.4 °C 9.1 °C 1035.1 hPa NNE 6.4 km/h 9.7 km/h 86 % 0.0 mm 0 W/m2
21:05 11.4 °C 9.1 °C 1035.1 hPa NE 4.8 km/h 9.7 km/h 86 % 0.0 mm 0 W/m2
21:10 11.3 °C 9.2 °C 1035.1 hPa NE 3.2 km/h 9.7 km/h 87 % 0.0 mm 0 W/m2
21:15 11.3 °C 9.2 °C 1035.1 hPa NNE 4.8 km/h 8.0 km/h 87 % 0.0 mm 0 W/m2
21:25 11.4 °C 9.3 °C 1035.1 hPa North 4.8 km/h 12.9 km/h 87 % 0.0 mm 0 W/m2
21:30 11.4 °C 9.2 °C 1035.1 hPa NE 6.4 km/h 12.9 km/h 86 % 0.0 mm 0 W/m2
21:35 11.4 °C 9.2 °C 1035.1 hPa ENE 9.7 km/h 12.9 km/h 86 % 0.0 mm 0 W/m2
21:40 11.5 °C 9.2 °C 1035.1 hPa NE 3.2 km/h 12.9 km/h 86 % 0.0 mm 0 W/m2
21:45 11.5 °C 9.2 °C 1034.8 hPa NE 11.3 km/h 20.9 km/h 86 % 0.0 mm 0 W/m2
21:50 11.5 °C 9.2 °C 1035.1 hPa NE 6.4 km/h 20.9 km/h 86 % 0.0 mm 0 W/m2
21:55 11.5 °C 9.2 °C 1035.1 hPa ENE 8.0 km/h 17.7 km/h 86 % 0.0 mm 0 W/m2
22:00 11.4 °C 9.2 °C 1035.1 hPa NE 4.8 km/h 17.7 km/h 86 % 0.0 mm 0 W/m2
22:10 11.4 °C 9.1 °C 1035.1 hPa NNE 6.4 km/h 17.7 km/h 86 % 0.0 mm 0 W/m2
22:15 11.3 °C 9.1 °C 1035.1 hPa NE 3.2 km/h 17.7 km/h 86 % 0.0 mm 0 W/m2
22:20 11.3 °C 9.2 °C 1035.1 hPa North 6.4 km/h 14.5 km/h 87 % 0.0 mm 0 W/m2
22:25 11.2 °C 9.1 °C 1035.1 hPa ENE 6.4 km/h 16.1 km/h 87 % 0.0 mm 0 W/m2
22:30 11.2 °C 9.1 °C 1035.1 hPa NNE 6.4 km/h 16.1 km/h 87 % 0.0 mm 0 W/m2
22:35 11.2 °C 9.1 °C 1035.1 hPa NNE 4.8 km/h 16.1 km/h 87 % 0.0 mm 0 W/m2
22:40 11.1 °C 9.0 °C 1035.1 hPa NNE 16.1 km/h 19.3 km/h 87 % 0.0 mm 0 W/m2
22:50 10.9 °C 8.9 °C 1035.1 hPa NE 9.7 km/h 20.9 km/h 87 % 0.0 mm 0 W/m2
22:55 10.9 °C 9.0 °C 1035.1 hPa NE 6.4 km/h 20.9 km/h 88 % 0.0 mm 0 W/m2
23:00 10.8 °C 8.9 °C 1035.1 hPa NNW 4.8 km/h 20.9 km/h 88 % 0.0 mm 0 W/m2
23:05 10.8 °C 8.9 °C 1035.1 hPa NNE 17.7 km/h 19.3 km/h 88 % 0.0 mm 0 W/m2
23:10 10.8 °C 8.9 °C 1035.1 hPa ENE 3.2 km/h 19.3 km/h 88 % 0.0 mm 0 W/m2
23:15 10.7 °C 8.8 °C 1035.1 hPa NE 8.0 km/h 17.7 km/h 88 % 0.0 mm 0 W/m2
23:20 10.7 °C 8.8 °C 1035.1 hPa NNE 1.6 km/h 16.1 km/h 88 % 0.0 mm 0 W/m2
23:25 10.6 °C 8.7 °C 1034.8 hPa NE 11.3 km/h 12.9 km/h 88 % 0.0 mm 0 W/m2
23:30 10.6 °C 8.7 °C 1034.8 hPa NE 9.7 km/h 12.9 km/h 88 % 0.0 mm 0 W/m2
23:40 10.4 °C 8.5 °C 1034.8 hPa NE 17.7 km/h 20.9 km/h 88 % 0.0 mm 0 W/m2
23:45 10.3 °C 8.4 °C 1034.8 hPa NNE 1.6 km/h 20.9 km/h 88 % 0.0 mm 0 W/m2
23:50 10.3 °C 8.4 °C 1034.8 hPa NNE 16.1 km/h 22.5 km/h 88 % 0.0 mm 0 W/m2
23:55 10.3 °C 8.4 °C 1034.8 hPa NNE 1.6 km/h 22.5 km/h 88 % 0.0 mm 0 W/m2
Avec l'autorisation de Weather Underground - 1.5 mb